sensor_id;sensor_type;location;lat;lon;timestamp;pressure;altitude;pressure_sealevel;temperature
61977;BMP280;45905;50.570;10.428;2023-03-14T00:00:16;95881.91;;;10.47
61977;BMP280;45905;50.570;10.428;2023-03-14T00:02:44;95913.44;;;10.44
61977;BMP280;45905;50.570;10.428;2023-03-14T00:05:11;95911.13;;;10.43
61977;BMP280;45905;50.570;10.428;2023-03-14T00:07:39;95920.69;;;10.41
61977;BMP280;45905;50.570;10.428;2023-03-14T00:10:13;95924.97;;;10.40
61977;BMP280;45905;50.570;10.428;2023-03-14T00:12:42;95941.91;;;10.40
61977;BMP280;45905;50.570;10.428;2023-03-14T00:15:10;95967.59;;;10.37
61977;BMP280;45905;50.570;10.428;2023-03-14T00:17:38;95989.97;;;10.33
61977;BMP280;45905;50.570;10.428;2023-03-14T00:20:07;95992.31;;;10.35
61977;BMP280;45905;50.570;10.428;2023-03-14T00:22:39;95989.00;;;10.34
61977;BMP280;45905;50.570;10.428;2023-03-14T00:25:09;95978.09;;;10.34
61977;BMP280;45905;50.570;10.428;2023-03-14T00:27:38;95963.13;;;10.32
61977;BMP280;45905;50.570;10.428;2023-03-14T00:30:06;95985.53;;;10.29
61977;BMP280;45905;50.570;10.428;2023-03-14T00:32:35;95988.63;;;10.25
61977;BMP280;45905;50.570;10.428;2023-03-14T00:35:03;95999.53;;;10.25
61977;BMP280;45905;50.570;10.428;2023-03-14T00:37:31;95996.44;;;10.23
61977;BMP280;45905;50.570;10.428;2023-03-14T00:39:58;95988.25;;;10.21
61977;BMP280;45905;50.570;10.428;2023-03-14T00:42:25;95972.66;;;10.24
61977;BMP280;45905;50.570;10.428;2023-03-14T00:44:52;95988.84;;;10.23
61977;BMP280;45905;50.570;10.428;2023-03-14T00:47:19;95986.31;;;10.23
61977;BMP280;45905;50.570;10.428;2023-03-14T00:49:47;95970.75;;;10.20
61977;BMP280;45905;50.570;10.428;2023-03-14T00:52:14;95985.53;;;10.16
61977;BMP280;45905;50.570;10.428;2023-03-14T00:54:42;95971.94;;;10.11
61977;BMP280;45905;50.570;10.428;2023-03-14T00:57:09;95981.28;;;10.10
61977;BMP280;45905;50.570;10.428;2023-03-14T00:59:36;95981.28;;;10.10
61977;BMP280;45905;50.570;10.428;2023-03-14T01:02:03;95977.97;;;10.04
61977;BMP280;45905;50.570;10.428;2023-03-14T01:04:30;95980.50;;;10.04
61977;BMP280;45905;50.570;10.428;2023-03-14T01:06:58;95975.25;;;10.05
61977;BMP280;45905;50.570;10.428;2023-03-14T01:09:25;95969.22;;;10.06
61977;BMP280;45905;50.570;10.428;2023-03-14T01:11:52;95944.91;;;10.05
61977;BMP280;45905;50.570;10.428;2023-03-14T01:14:19;95946.66;;;10.05
61977;BMP280;45905;50.570;10.428;2023-03-14T01:16:46;95962.41;;;10.07
61977;BMP280;45905;50.570;10.428;2023-03-14T01:19:13;95944.31;;;10.03
61977;BMP280;45905;50.570;10.428;2023-03-14T01:21:41;95947.81;;;10.02
61977;BMP280;45905;50.570;10.428;2023-03-14T01:24:11;95954.63;;;10.02
61977;BMP280;45905;50.570;10.428;2023-03-14T01:26:39;95940.84;;;9.98
61977;BMP280;45905;50.570;10.428;2023-03-14T01:29:08;95932.25;;;9.99
61977;BMP280;45905;50.570;10.428;2023-03-14T01:31:38;95938.09;;;9.99
61977;BMP280;45905;50.570;10.428;2023-03-14T01:34:05;95935.78;;;9.98
61977;BMP280;45905;50.570;10.428;2023-03-14T01:36:32;95925.09;;;9.96
61977;BMP280;45905;50.570;10.428;2023-03-14T01:39:01;95914.97;;;9.96
61977;BMP280;45905;50.570;10.428;2023-03-14T01:41:29;95901.16;;;9.92
61977;BMP280;45905;50.570;10.428;2023-03-14T01:43:58;95901.34;;;9.91
61977;BMP280;45905;50.570;10.428;2023-03-14T01:46:32;95897.84;;;9.91
61977;BMP280;45905;50.570;10.428;2023-03-14T01:49:05;95902.72;;;9.93
61977;BMP280;45905;50.570;10.428;2023-03-14T01:52:03;95904.28;;;9.94
61977;BMP280;45905;50.570;10.428;2023-03-14T01:54:50;95902.72;;;9.93
61977;BMP280;45905;50.570;10.428;2023-03-14T01:57:30;95898.03;;;9.90
61977;BMP280;45905;50.570;10.428;2023-03-14T02:00:21;95889.13;;;9.88
61977;BMP280;45905;50.570;10.428;2023-03-14T02:02:54;95894.19;;;9.88
61977;BMP280;45905;50.570;10.428;2023-03-14T02:05:27;95892.81;;;9.85
61977;BMP280;45905;50.570;10.428;2023-03-14T02:08:04;95880.19;;;9.85
61977;BMP280;45905;50.570;10.428;2023-03-14T02:10:45;95878.63;;;9.84
61977;BMP280;45905;50.570;10.428;2023-03-14T02:13:18;95866.94;;;9.83
61977;BMP280;45905;50.570;10.428;2023-03-14T02:15:53;95852.94;;;9.81
61977;BMP280;45905;50.570;10.428;2023-03-14T02:18:39;95861.91;;;9.83
61977;BMP280;45905;50.570;10.428;2023-03-14T02:21:53;95859.94;;;9.85
61977;BMP280;45905;50.570;10.428;2023-03-14T02:24:43;95857.63;;;9.84
61977;BMP280;45905;50.570;10.428;2023-03-14T02:27:19;95868.50;;;9.84
61977;BMP280;45905;50.570;10.428;2023-03-14T02:29:58;95874.94;;;9.80
61977;BMP280;45905;50.570;10.428;2023-03-14T02:32:31;95880.97;;;9.79
61977;BMP280;45905;50.570;10.428;2023-03-14T02:35:04;95873.41;;;9.79
61977;BMP280;45905;50.570;10.428;2023-03-14T02:37:41;95869.31;;;9.78
61977;BMP280;45905;50.570;10.428;2023-03-14T02:40:10;95862.31;;;9.80
61977;BMP280;45905;50.570;10.428;2023-03-14T02:42:39;95852.94;;;9.81
61977;BMP280;45905;50.570;10.428;2023-03-14T02:47:46;95852.19;;;9.80
61977;BMP280;45905;50.570;10.428;2023-03-14T02:50:21;95856.25;;;9.81
61977;BMP280;45905;50.570;10.428;2023-03-14T02:52:49;95847.16;;;9.80
61977;BMP280;45905;50.570;10.428;2023-03-14T02:55:24;95835.06;;;9.82
61977;BMP280;45905;50.570;10.428;2023-03-14T02:58:00;95829.44;;;9.80
61977;BMP280;45905;50.570;10.428;2023-03-14T03:00:28;95826.13;;;9.80
61977;BMP280;45905;50.570;10.428;2023-03-14T03:02:57;95825.38;;;9.79
61977;BMP280;45905;50.570;10.428;2023-03-14T03:05:24;95812.88;;;9.78
61977;BMP280;45905;50.570;10.428;2023-03-14T03:07:51;95820.47;;;9.78
61977;BMP280;45905;50.570;10.428;2023-03-14T03:10:19;95818.75;;;9.78
61977;BMP280;45905;50.570;10.428;2023-03-14T03:12:46;95821.88;;;9.80
61977;BMP280;45905;50.570;10.428;2023-03-14T03:15:13;95823.97;;;9.77
61977;BMP280;45905;50.570;10.428;2023-03-14T03:17:40;95804.72;;;9.76
61977;BMP280;45905;50.570;10.428;2023-03-14T03:20:09;95811.75;;;9.80
61977;BMP280;45905;50.570;10.428;2023-03-14T03:22:38;95798.53;;;9.78
61977;BMP280;45905;50.570;10.428;2023-03-14T03:25:08;95798.34;;;9.80
61977;BMP280;45905;50.570;10.428;2023-03-14T03:27:37;95813.69;;;9.78
61977;BMP280;45905;50.570;10.428;2023-03-14T03:30:07;95829.44;;;9.80
61977;BMP280;45905;50.570;10.428;2023-03-14T03:32:35;95819.09;;;9.75
61977;BMP280;45905;50.570;10.428;2023-03-14T03:35:04;95800.63;;;9.75
61977;BMP280;45905;50.570;10.428;2023-03-14T03:37:35;95809.00;;;9.75
61977;BMP280;45905;50.570;10.428;2023-03-14T03:40:06;95791.31;;;9.75
61977;BMP280;45905;50.570;10.428;2023-03-14T03:42:36;95798.09;;;9.75
61977;BMP280;45905;50.570;10.428;2023-03-14T03:45:07;95811.34;;;9.77
61977;BMP280;45905;50.570;10.428;2023-03-14T03:47:38;95808.22;;;9.75
61977;BMP280;45905;50.570;10.428;2023-03-14T03:50:06;95802.78;;;9.78
61977;BMP280;45905;50.570;10.428;2023-03-14T03:52:33;95798.88;;;9.82
61977;BMP280;45905;50.570;10.428;2023-03-14T03:55:01;95790.94;;;9.78
61977;BMP280;45905;50.570;10.428;2023-03-14T03:57:28;95796.59;;;9.80
61977;BMP280;45905;50.570;10.428;2023-03-14T03:59:56;95793.63;;;9.83
61977;BMP280;45905;50.570;10.428;2023-03-14T04:02:23;95789.16;;;9.85
61977;BMP280;45905;50.570;10.428;2023-03-14T04:04:51;95778.28;;;9.85
61977;BMP280;45905;50.570;10.428;2023-03-14T04:07:18;95782.56;;;9.84
61977;BMP280;45905;50.570;10.428;2023-03-14T04:09:46;95796.38;;;9.82
61977;BMP280;45905;50.570;10.428;2023-03-14T04:12:31;95784.31;;;9.77
61977;BMP280;45905;50.570;10.428;2023-03-14T04:15:05;95782.94;;;9.81
61977;BMP280;45905;50.570;10.428;2023-03-14T04:17:34;95773.63;;;9.82
61977;BMP280;45905;50.570;10.428;2023-03-14T04:20:02;95786.47;;;9.80
61977;BMP280;45905;50.570;10.428;2023-03-14T04:22:34;95782.56;;;9.78
61977;BMP280;45905;50.570;10.428;2023-03-14T04:25:01;95769.91;;;9.78
61977;BMP280;45905;50.570;10.428;2023-03-14T04:27:34;95768.19;;;9.78
61977;BMP280;45905;50.570;10.428;2023-03-14T04:30:03;95770.88;;;9.77
61977;BMP280;45905;50.570;10.428;2023-03-14T04:32:47;95761.75;;;9.76
61977;BMP280;45905;50.570;10.428;2023-03-14T04:35:15;95758.63;;;9.74
61977;BMP280;45905;50.570;10.428;2023-03-14T04:37:42;95753.78;;;9.72
61977;BMP280;45905;50.570;10.428;2023-03-14T04:40:12;95761.75;;;9.76
61977;BMP280;45905;50.570;10.428;2023-03-14T04:42:39;95759.22;;;9.76
61977;BMP280;45905;50.570;10.428;2023-03-14T04:45:08;95754.94;;;9.76
61977;BMP280;45905;50.570;10.428;2023-03-14T04:47:37;95746.59;;;9.76
61977;BMP280;45905;50.570;10.428;2023-03-14T04:50:05;95745.03;;;9.75
61977;BMP280;45905;50.570;10.428;2023-03-14T04:52:32;95756.88;;;9.74
61977;BMP280;45905;50.570;10.428;2023-03-14T04:55:00;95742.69;;;9.73
61977;BMP280;45905;50.570;10.428;2023-03-14T04:57:28;95732.03;;;9.72
61977;BMP280;45905;50.570;10.428;2023-03-14T04:59:55;95730.47;;;9.71
61977;BMP280;45905;50.570;10.428;2023-03-14T05:02:43;95735.13;;;9.73
61977;BMP280;45905;50.570;10.428;2023-03-14T05:05:21;95728.50;;;9.72
61977;BMP280;45905;50.570;10.428;2023-03-14T05:08:04;95726.75;;;9.73
61977;BMP280;45905;50.570;10.428;2023-03-14T05:10:53;95732.59;;;9.73
61977;BMP280;45905;50.570;10.428;2023-03-14T05:13:38;95726.97;;;9.72
61977;BMP280;45905;50.570;10.428;2023-03-14T05:16:32;95744.09;;;9.70
61977;BMP280;45905;50.570;10.428;2023-03-14T05:19:22;95737.88;;;9.66
61977;BMP280;45905;50.570;10.428;2023-03-14T05:22:16;95730.09;;;9.67
61977;BMP280;45905;50.570;10.428;2023-03-14T05:24:54;95738.44;;;9.68
61977;BMP280;45905;50.570;10.428;2023-03-14T05:27:46;95741.38;;;9.65
61977;BMP280;45905;50.570;10.428;2023-03-14T05:30:35;95734.97;;;9.62
61977;BMP280;45905;50.570;10.428;2023-03-14T05:33:14;95732.66;;;9.61
61977;BMP280;45905;50.570;10.428;2023-03-14T05:36:08;95733.63;;;9.60
61977;BMP280;45905;50.570;10.428;2023-03-14T05:38:55;95738.69;;;9.60
61977;BMP280;45905;50.570;10.428;2023-03-14T05:41:49;95737.91;;;9.59
61977;BMP280;45905;50.570;10.428;2023-03-14T05:44:16;95740.22;;;9.61
61977;BMP280;45905;50.570;10.428;2023-03-14T05:47:02;95745.28;;;9.61
61977;BMP280;45905;50.570;10.428;2023-03-14T05:49:49;95728.19;;;9.56
61977;BMP280;45905;50.570;10.428;2023-03-14T05:52:35;95741.41;;;9.58
61977;BMP280;45905;50.570;10.428;2023-03-14T05:55:09;95735.56;;;9.58
61977;BMP280;45905;50.570;10.428;2023-03-14T05:57:55;95733.63;;;9.60
61977;BMP280;45905;50.570;10.428;2023-03-14T06:00:49;95735.19;;;9.61
61977;BMP280;45905;50.570;10.428;2023-03-14T06:03:34;95729.16;;;9.55
61977;BMP280;45905;50.570;10.428;2023-03-14T06:06:02;95728.97;;;9.57
61977;BMP280;45905;50.570;10.428;2023-03-14T06:08:29;95718.66;;;9.58
61977;BMP280;45905;50.570;10.428;2023-03-14T06:10:57;95713.41;;;9.60
61977;BMP280;45905;50.570;10.428;2023-03-14T06:13:29;95712.63;;;9.59
61977;BMP280;45905;50.570;10.428;2023-03-14T06:15:56;95705.25;;;9.58
61977;BMP280;45905;50.570;10.428;2023-03-14T06:18:23;95724.31;;;9.54
61977;BMP280;45905;50.570;10.428;2023-03-14T06:20:55;95723.91;;;9.57
61977;BMP280;45905;50.570;10.428;2023-03-14T06:23:25;95721.38;;;9.57
61977;BMP280;45905;50.570;10.428;2023-03-14T06:25:54;95722.34;;;9.56
61977;BMP280;45905;50.570;10.428;2023-03-14T06:28:23;95715.56;;;9.56
61977;BMP280;45905;50.570;10.428;2023-03-14T06:30:53;95711.84;;;9.59
61977;BMP280;45905;50.570;10.428;2023-03-14T06:33:20;95702.72;;;9.58
61977;BMP280;45905;50.570;10.428;2023-03-14T06:35:47;95700.59;;;9.55
61977;BMP280;45905;50.570;10.428;2023-03-14T06:38:14;95704.47;;;9.57
61977;BMP280;45905;50.570;10.428;2023-03-14T06:40:42;95709.91;;;9.54
61977;BMP280;45905;50.570;10.428;2023-03-14T06:43:12;95710.69;;;9.55
61977;BMP280;45905;50.570;10.428;2023-03-14T06:45:42;95696.13;;;9.57
61977;BMP280;45905;50.570;10.428;2023-03-14T06:48:09;95695.34;;;9.56
61977;BMP280;45905;50.570;10.428;2023-03-14T06:50:42;95704.28;;;9.59
61977;BMP280;45905;50.570;10.428;2023-03-14T06:53:09;95705.81;;;9.60
61977;BMP280;45905;50.570;10.428;2023-03-14T06:55:40;95713.81;;;9.57
61977;BMP280;45905;50.570;10.428;2023-03-14T06:58:08;95708.16;;;9.55
61977;BMP280;45905;50.570;10.428;2023-03-14T07:00:41;95704.13;;;9.54
61977;BMP280;45905;50.570;10.428;2023-03-14T07:03:10;95709.72;;;9.56
61977;BMP280;45905;50.570;10.428;2023-03-14T07:05:42;95700.19;;;9.58
61977;BMP280;45905;50.570;10.428;2023-03-14T07:08:09;95707.78;;;9.58
61977;BMP280;45905;50.570;10.428;2023-03-14T07:10:37;95704.28;;;9.59
61977;BMP280;45905;50.570;10.428;2023-03-14T07:13:06;95698.63;;;9.57
61977;BMP280;45905;50.570;10.428;2023-03-14T07:15:39;95695.34;;;9.56
61977;BMP280;45905;50.570;10.428;2023-03-14T07:18:09;95697.09;;;9.56
61977;BMP280;45905;50.570;10.428;2023-03-14T07:20:36;95696.13;;;9.57
61977;BMP280;45905;50.570;10.428;2023-03-14T07:23:04;95688.94;;;9.54
61977;BMP280;45905;50.570;10.428;2023-03-14T07:25:39;95701.59;;;9.54
61977;BMP280;45905;50.570;10.428;2023-03-14T07:28:06;95685.47;;;9.49
61977;BMP280;45905;50.570;10.428;2023-03-14T07:30:33;95685.06;;;9.52
61977;BMP280;45905;50.570;10.428;2023-03-14T07:33:03;95675.16;;;9.50
61977;BMP280;45905;50.570;10.428;2023-03-14T07:35:30;95673.00;;;9.53
61977;BMP280;45905;50.570;10.428;2023-03-14T07:37:57;95681.53;;;9.59
61977;BMP280;45905;50.570;10.428;2023-03-14T07:40:32;95683.09;;;9.60
61977;BMP280;45905;50.570;10.428;2023-03-14T07:42:59;95668.75;;;9.54
61977;BMP280;45905;50.570;10.428;2023-03-14T07:45:36;95663.22;;;9.63
61977;BMP280;45905;50.570;10.428;2023-03-14T07:48:08;95665.94;;;9.68
61977;BMP280;45905;50.570;10.428;2023-03-14T07:50:35;95662.44;;;9.69
61977;BMP280;45905;50.570;10.428;2023-03-14T07:53:03;95667.84;;;9.72
61977;BMP280;45905;50.570;10.428;2023-03-14T07:55:30;95662.41;;;9.75
61977;BMP280;45905;50.570;10.428;2023-03-14T07:57:57;95658.69;;;9.78
61977;BMP280;45905;50.570;10.428;2023-03-14T08:00:24;95665.69;;;9.82
61977;BMP280;45905;50.570;10.428;2023-03-14T08:02:52;95672.88;;;9.85
61977;BMP280;45905;50.570;10.428;2023-03-14T08:05:19;95669.94;;;9.88
61977;BMP280;45905;50.570;10.428;2023-03-14T08:07:46;95668.56;;;9.92
61977;BMP280;45905;50.570;10.428;2023-03-14T08:10:13;95675.94;;;9.93
61977;BMP280;45905;50.570;10.428;2023-03-14T08:12:59;95672.25;;;9.96
61977;BMP280;45905;50.570;10.428;2023-03-14T08:15:29;95667.38;;;9.94
61977;BMP280;45905;50.570;10.428;2023-03-14T08:17:57;95677.09;;;9.97
61977;BMP280;45905;50.570;10.428;2023-03-14T08:20:27;95678.28;;;9.95
61977;BMP280;45905;50.570;10.428;2023-03-14T08:22:57;95674.19;;;9.94
61977;BMP280;45905;50.570;10.428;2023-03-14T08:25:26;95677.28;;;9.96
61977;BMP280;45905;50.570;10.428;2023-03-14T08:27:54;95678.63;;;9.98
61977;BMP280;45905;50.570;10.428;2023-03-14T08:30:22;95676.91;;;9.92
61977;BMP280;45905;50.570;10.428;2023-03-14T08:32:49;95680.78;;;9.95
61977;BMP280;45905;50.570;10.428;2023-03-14T08:35:17;95677.28;;;9.96
61977;BMP280;45905;50.570;10.428;2023-03-14T08:37:44;95678.28;;;9.95
61977;BMP280;45905;50.570;10.428;2023-03-14T08:40:12;95679.81;;;9.96
61977;BMP280;45905;50.570;10.428;2023-03-14T08:42:40;95688.38;;;9.95
61977;BMP280;45905;50.570;10.428;2023-03-14T08:45:11;95686.81;;;9.94
61977;BMP280;45905;50.570;10.428;2023-03-14T08:47:39;95692.09;;;9.92
61977;BMP280;45905;50.570;10.428;2023-03-14T08:50:08;95685.84;;;9.95
61977;BMP280;45905;50.570;10.428;2023-03-14T08:52:36;95677.88;;;9.98
61977;BMP280;45905;50.570;10.428;2023-03-14T08:55:09;95680.59;;;9.96
61977;BMP280;45905;50.570;10.428;2023-03-14T08:57:36;95679.44;;;9.92
61977;BMP280;45905;50.570;10.428;2023-03-14T09:00:06;95678.28;;;9.95
61977;BMP280;45905;50.570;10.428;2023-03-14T09:02:42;95680.94;;;10.00
61977;BMP280;45905;50.570;10.428;2023-03-14T09:05:10;95692.22;;;10.04
61977;BMP280;45905;50.570;10.428;2023-03-14T09:07:39;95691.41;;;10.10
61977;BMP280;45905;50.570;10.428;2023-03-14T09:10:08;95694.50;;;10.11
61977;BMP280;45905;50.570;10.428;2023-03-14T09:12:36;95699.16;;;10.14
61977;BMP280;45905;50.570;10.428;2023-03-14T09:15:04;95703.41;;;10.20
61977;BMP280;45905;50.570;10.428;2023-03-14T09:17:31;95702.63;;;10.20
61977;BMP280;45905;50.570;10.428;2023-03-14T09:19:58;95707.06;;;10.24
61977;BMP280;45905;50.570;10.428;2023-03-14T09:22:26;95707.22;;;10.29
61977;BMP280;45905;50.570;10.428;2023-03-14T09:24:53;95709.56;;;10.30
61977;BMP280;45905;50.570;10.428;2023-03-14T09:27:20;95705.28;;;10.31
61977;BMP280;45905;50.570;10.428;2023-03-14T09:29:47;95703.28;;;10.33
61977;BMP280;45905;50.570;10.428;2023-03-14T09:32:14;95711.06;;;10.38
61977;BMP280;45905;50.570;10.428;2023-03-14T09:34:42;95713.00;;;10.36
61977;BMP280;45905;50.570;10.428;2023-03-14T09:37:09;95710.22;;;10.44
61977;BMP280;45905;50.570;10.428;2023-03-14T09:39:36;95709.63;;;10.48
61977;BMP280;45905;50.570;10.428;2023-03-14T09:42:07;95711.53;;;10.52
61977;BMP280;45905;50.570;10.428;2023-03-14T09:44:51;95700.59;;;10.58
61977;BMP280;45905;50.570;10.428;2023-03-14T09:47:23;95715.34;;;10.61
61977;BMP280;45905;50.570;10.428;2023-03-14T09:49:52;95708.91;;;10.65
61977;BMP280;45905;50.570;10.428;2023-03-14T09:52:39;95704.44;;;10.67
61977;BMP280;45905;50.570;10.428;2023-03-14T09:55:22;95707.66;;;10.74
61977;BMP280;45905;50.570;10.428;2023-03-14T09:57:57;95707.03;;;10.78
61977;BMP280;45905;50.570;10.428;2023-03-14T10:00:30;95698.25;;;10.81
61977;BMP280;45905;50.570;10.428;2023-03-14T10:03:26;95706.25;;;10.78
61977;BMP280;45905;50.570;10.428;2023-03-14T10:06:13;95701.94;;;10.85
61977;BMP280;45905;50.570;10.428;2023-03-14T10:08:45;95700.59;;;10.82
61977;BMP280;45905;50.570;10.428;2023-03-14T10:11:17;95721.19;;;10.86
61977;BMP280;45905;50.570;10.428;2023-03-14T10:14:10;95719.09;;;10.83
61977;BMP280;45905;50.570;10.428;2023-03-14T10:16:44;95711.91;;;10.80
61977;BMP280;45905;50.570;10.428;2023-03-14T10:19:15;95719.28;;;10.81
61977;BMP280;45905;50.570;10.428;2023-03-14T10:21:53;95718.13;;;10.77
61977;BMP280;45905;50.570;10.428;2023-03-14T10:24:28;95727.50;;;10.77
61977;BMP280;45905;50.570;10.428;2023-03-14T10:27:04;95723.63;;;10.74
61977;BMP280;45905;50.570;10.428;2023-03-14T10:29:51;95716.63;;;10.76
61977;BMP280;45905;50.570;10.428;2023-03-14T10:32:21;95732.94;;;10.80
61977;BMP280;45905;50.570;10.428;2023-03-14T10:38:01;95719.91;;;10.77
61977;BMP280;45905;50.570;10.428;2023-03-14T10:40:47;95724.75;;;10.78
61977;BMP280;45905;50.570;10.428;2023-03-14T10:43:21;95726.31;;;10.79
61977;BMP280;45905;50.570;10.428;2023-03-14T10:45:58;95729.63;;;10.80
61977;BMP280;45905;50.570;10.428;2023-03-14T10:48:39;95733.69;;;10.81
61977;BMP280;45905;50.570;10.428;2023-03-14T10:51:32;95729.56;;;10.86
61977;BMP280;45905;50.570;10.428;2023-03-14T10:54:04;95727.41;;;10.89
61977;BMP280;45905;50.570;10.428;2023-03-14T10:56:38;95726.63;;;10.89
61977;BMP280;45905;50.570;10.428;2023-03-14T10:59:14;95726.03;;;10.87
61977;BMP280;45905;50.570;10.428;2023-03-14T11:01:55;95724.28;;;10.87
61977;BMP280;45905;50.570;10.428;2023-03-14T11:07:43;95734.72;;;10.97
61977;BMP280;45905;50.570;10.428;2023-03-14T11:10:46;95735.56;;;10.91
61977;BMP280;45905;50.570;10.428;2023-03-14T11:14:04;95728.03;;;10.85
61977;BMP280;45905;50.570;10.428;2023-03-14T11:17:15;95724.50;;;10.86
61977;BMP280;45905;50.570;10.428;2023-03-14T11:22:50;95716.97;;;10.80
61977;BMP280;45905;50.570;10.428;2023-03-14T11:25:36;95713.44;;;10.81
61977;BMP280;45905;50.570;10.428;2023-03-14T11:28:38;95709.09;;;10.87
61977;BMP280;45905;50.570;10.428;2023-03-14T11:31:26;95714.88;;;10.94
61977;BMP280;45905;50.570;10.428;2023-03-14T11:34:17;95706.09;;;10.97
61977;BMP280;45905;50.570;10.428;2023-03-14T11:37:10;95698.88;;;11.00
61977;BMP280;45905;50.570;10.428;2023-03-14T11:39:41;95709.69;;;11.07
61977;BMP280;45905;50.570;10.428;2023-03-14T11:42:16;95698.31;;;11.16
61977;BMP280;45905;50.570;10.428;2023-03-14T11:44:48;95701.53;;;11.23
61977;BMP280;45905;50.570;10.428;2023-03-14T11:47:23;95688.47;;;11.25
61977;BMP280;45905;50.570;10.428;2023-03-14T11:50:18;95690.75;;;11.33
61977;BMP280;45905;50.570;10.428;2023-03-14T11:53:14;95683.06;;;11.40
61977;BMP280;45905;50.570;10.428;2023-03-14T11:55:43;95679.63;;;11.52
61977;BMP280;45905;50.570;10.428;2023-03-14T11:58:22;95676.91;;;11.64
61977;BMP280;45905;50.570;10.428;2023-03-14T12:00:53;95687.22;;;11.69
61977;BMP280;45905;50.570;10.428;2023-03-14T12:03:36;95696.94;;;11.72
61977;BMP280;45905;50.570;10.428;2023-03-14T12:09:15;95690.31;;;11.71
61977;BMP280;45905;50.570;10.428;2023-03-14T12:11:55;95685.66;;;11.68
61977;BMP280;45905;50.570;10.428;2023-03-14T12:14:30;95678.81;;;11.69
61977;BMP280;45905;50.570;10.428;2023-03-14T12:19:35;95682.28;;;11.57
61977;BMP280;45905;50.570;10.428;2023-03-14T12:22:29;95692.88;;;11.54
61977;BMP280;45905;50.570;10.428;2023-03-14T12:25:19;95682.00;;;11.47
61977;BMP280;45905;50.570;10.428;2023-03-14T12:27:49;95678.94;;;11.45
61977;BMP280;45905;50.570;10.428;2023-03-14T12:30:38;95680.25;;;11.47
61977;BMP280;45905;50.570;10.428;2023-03-14T12:35:47;95675.66;;;11.38
61977;BMP280;45905;50.570;10.428;2023-03-14T12:38:46;95682.78;;;11.30
61977;BMP280;45905;50.570;10.428;2023-03-14T12:41:26;95696.75;;;11.15
61977;BMP280;45905;50.570;10.428;2023-03-14T12:43:55;95688.28;;;11.03
61977;BMP280;45905;50.570;10.428;2023-03-14T12:46:28;95694.09;;;11.10
61977;BMP280;45905;50.570;10.428;2023-03-14T12:49:05;95678.91;;;11.10
61977;BMP280;45905;50.570;10.428;2023-03-14T12:51:39;95687.88;;;11.06
61977;BMP280;45905;50.570;10.428;2023-03-14T13:00:22;95676.84;;;11.01
61977;BMP280;45905;50.570;10.428;2023-03-14T13:02:50;95673.53;;;11.00
61977;BMP280;45905;50.570;10.428;2023-03-14T13:05:23;95669.28;;;10.94
61977;BMP280;45905;50.570;10.428;2023-03-14T13:10:26;95672.09;;;10.86
61977;BMP280;45905;50.570;10.428;2023-03-14T13:13:28;95667.47;;;10.84
61977;BMP280;45905;50.570;10.428;2023-03-14T13:15:57;95660.84;;;10.83
61977;BMP280;45905;50.570;10.428;2023-03-14T13:18:36;95663.53;;;10.87
61977;BMP280;45905;50.570;10.428;2023-03-14T13:21:21;95664.50;;;10.86
61977;BMP280;45905;50.570;10.428;2023-03-14T13:26:42;95664.78;;;10.79
61977;BMP280;45905;50.570;10.428;2023-03-14T13:29:27;95668.44;;;10.83
61977;BMP280;45905;50.570;10.428;2023-03-14T13:31:58;95670.41;;;10.81
61977;BMP280;45905;50.570;10.428;2023-03-14T13:34:33;95678.66;;;10.76
61977;BMP280;45905;50.570;10.428;2023-03-14T13:37:01;95684.31;;;10.72
61977;BMP280;45905;50.570;10.428;2023-03-14T13:39:29;95683.22;;;10.62
61977;BMP280;45905;50.570;10.428;2023-03-14T13:42:01;95692.19;;;10.64
61977;BMP280;45905;50.570;10.428;2023-03-14T13:44:39;95697.25;;;10.64
61977;BMP280;45905;50.570;10.428;2023-03-14T13:47:17;95699.59;;;10.59
61977;BMP280;45905;50.570;10.428;2023-03-14T13:49:45;95704.13;;;10.57
61977;BMP280;45905;50.570;10.428;2023-03-14T13:52:55;95713.25;;;10.58
61977;BMP280;45905;50.570;10.428;2023-03-14T13:55:22;95747.34;;;10.56
61977;BMP280;45905;50.570;10.428;2023-03-14T13:57:53;95785.13;;;10.51
61977;BMP280;45905;50.570;10.428;2023-03-14T14:00:25;95784.03;;;10.41
61977;BMP280;45905;50.570;10.428;2023-03-14T14:02:59;95794.59;;;10.31
61977;BMP280;45905;50.570;10.428;2023-03-14T14:05:29;95809.63;;;10.20
61977;BMP280;45905;50.570;10.428;2023-03-14T14:07:58;95811.66;;;9.99
61977;BMP280;45905;50.570;10.428;2023-03-14T14:10:37;95834.88;;;9.77
61977;BMP280;45905;50.570;10.428;2023-03-14T14:13:10;95828.31;;;9.51
61977;BMP280;45905;50.570;10.428;2023-03-14T14:15:45;95844.66;;;9.42
61977;BMP280;45905;50.570;10.428;2023-03-14T14:18:18;95861.56;;;9.42
61977;BMP280;45905;50.570;10.428;2023-03-14T14:20:48;95869.16;;;9.35
61977;BMP280;45905;50.570;10.428;2023-03-14T14:23:22;95873.81;;;9.26
61977;BMP280;45905;50.570;10.428;2023-03-14T14:25:54;95889.94;;;9.18
61977;BMP280;45905;50.570;10.428;2023-03-14T14:28:29;95900.97;;;9.11
61977;BMP280;45905;50.570;10.428;2023-03-14T14:31:21;95920.22;;;9.06
61977;BMP280;45905;50.570;10.428;2023-03-14T14:34:00;95944.09;;;9.03
61977;BMP280;45905;50.570;10.428;2023-03-14T14:36:43;95946.44;;;8.98
61977;BMP280;45905;50.570;10.428;2023-03-14T14:41:51;95985.06;;;8.93
61977;BMP280;45905;50.570;10.428;2023-03-14T14:44:32;95995.09;;;8.74
61977;BMP280;45905;50.570;10.428;2023-03-14T14:47:03;95996.03;;;8.66
61977;BMP280;45905;50.570;10.428;2023-03-14T14:49:33;96026.88;;;8.68
61977;BMP280;45905;50.570;10.428;2023-03-14T14:52:14;96033.50;;;8.69
61977;BMP280;45905;50.570;10.428;2023-03-14T14:54:51;96057.72;;;8.57
61977;BMP280;45905;50.570;10.428;2023-03-14T14:57:33;96076.50;;;8.49
61977;BMP280;45905;50.570;10.428;2023-03-14T15:00:23;96078.28;;;8.28
61977;BMP280;45905;50.570;10.428;2023-03-14T15:02:53;96096.38;;;8.11
61977;BMP280;45905;50.570;10.428;2023-03-14T15:05:26;96116.78;;;7.95
61977;BMP280;45905;50.570;10.428;2023-03-14T15:07:54;96120.53;;;7.99
61977;BMP280;45905;50.570;10.428;2023-03-14T15:10:24;96126.00;;;7.88
61977;BMP280;45905;50.570;10.428;2023-03-14T15:12:51;96140.69;;;7.79
61977;BMP280;45905;50.570;10.428;2023-03-14T15:15:19;96147.75;;;7.69